createdAt,value
2022-11-21T00:01:21.196Z,100308.41
2022-11-21T00:03:49.177Z,100309.13
2022-11-21T00:06:19.189Z,100301.38
2022-11-21T00:08:47.109Z,100290.63
2022-11-21T00:11:15.325Z,100292.81
2022-11-21T00:13:43.761Z,100289.34
2022-11-21T00:16:14.245Z,100288.56
2022-11-21T00:18:43.920Z,100275.28
2022-11-21T00:21:14.173Z,100266.38
2022-11-21T00:23:43.638Z,100264.97
2022-11-21T00:26:13.385Z,100262.28
2022-11-21T00:28:41.425Z,100262.03
2022-11-21T00:31:09.486Z,100255.91
2022-11-21T00:33:38.981Z,100258.53
2022-11-21T00:36:08.531Z,100255.84
2022-11-21T00:38:36.634Z,100247.50
2022-11-21T00:41:05.832Z,100240.44
2022-11-21T00:43:33.980Z,100239.69
2022-11-21T00:46:02.919Z,100240.78
2022-11-21T00:48:32.228Z,100238.59
2022-11-21T00:51:01.422Z,100242.72
2022-11-21T00:53:30.340Z,100246.28
2022-11-21T00:55:58.705Z,100242.38
2022-11-21T00:58:28.519Z,100234.28
2022-11-21T01:01:04.534Z,100234.56
2022-11-21T01:03:34.905Z,100228.94
2022-11-21T01:06:05.163Z,100223.78
2022-11-21T01:08:33.651Z,100220.59
2022-11-21T01:11:04.017Z,100221.56
2022-11-21T01:13:33.378Z,100220.78
2022-11-21T01:16:05.582Z,100216.09
2022-11-21T01:18:34.021Z,100213.78
2022-11-21T01:21:02.443Z,100213.69
2022-11-21T01:23:30.695Z,100218.69
2022-11-21T01:26:03.666Z,100224.22
2022-11-21T01:28:33.477Z,100214.97
2022-11-21T01:31:05.924Z,100214.81
2022-11-21T01:33:34.114Z,100223.47
2022-11-21T01:36:08.874Z,100224.41
2022-11-21T01:38:37.045Z,100210.19
2022-11-21T01:41:05.220Z,100211.47
2022-11-21T01:43:35.035Z,100209.16
2022-11-21T01:46:07.881Z,100209.88
2022-11-21T01:48:41.611Z,100209.88
2022-11-21T01:51:14.409Z,100207.97
2022-11-21T01:53:46.553Z,100209.84
2022-11-21T01:56:15.549Z,100206.34
2022-11-21T01:58:47.441Z,100202.22
2022-11-21T02:01:16.074Z,100207.69
2022-11-21T02:03:46.694Z,100202.41
2022-11-21T02:06:15.040Z,100200.84
2022-11-21T02:08:45.010Z,100196.66
2022-11-21T02:11:22.940Z,100203.06
2022-11-21T02:13:52.402Z,100205.75
2022-11-21T02:16:20.423Z,100204.25
2022-11-21T02:18:48.382Z,100203.25
2022-11-21T02:21:27.664Z,100204.34
2022-11-21T02:24:01.987Z,100203.88
2022-11-21T02:26:31.633Z,100203.19
2022-11-21T02:28:59.615Z,100197.84
2022-11-21T02:31:27.495Z,100196.97
2022-11-21T02:33:55.368Z,100195.72
2022-11-21T02:36:38.250Z,100185.63
2022-11-21T02:39:07.870Z,100190.94
2022-11-21T02:41:41.669Z,100177.69
2022-11-21T02:44:16.949Z,100176.38
2022-11-21T02:46:49.980Z,100178.84
2022-11-21T02:49:20.826Z,100162.31
2022-11-21T02:51:49.344Z,100162.03
2022-11-21T02:54:17.328Z,100162.72
2022-11-21T02:56:46.625Z,100161.72
2022-11-21T02:59:14.654Z,100160.88
2022-11-21T03:01:42.598Z,100157.38
2022-11-21T03:04:10.593Z,100159.09
2022-11-21T03:06:38.536Z,100164.22
2022-11-21T03:09:06.491Z,100152.31
2022-11-21T03:11:34.381Z,100151.44
2022-11-21T03:14:03.695Z,100148.88
2022-11-21T03:16:31.709Z,100145.81
2022-11-21T03:18:59.810Z,100146.00
2022-11-21T03:21:27.748Z,100147.22
2022-11-21T03:23:55.671Z,100148.56
2022-11-21T03:26:23.735Z,100142.38
2022-11-21T03:28:51.653Z,100144.00
2022-11-21T03:31:20.990Z,100145.00
2022-11-21T03:33:49.052Z,100139.41
2022-11-21T03:36:16.906Z,100145.16
2022-11-21T03:38:44.812Z,100151.75
2022-11-21T03:41:26.615Z,100154.38
2022-11-21T03:43:54.752Z,100161.44
2022-11-21T03:46:24.396Z,100155.91
2022-11-21T03:48:52.391Z,100157.03
2022-11-21T03:51:20.748Z,100155.31
2022-11-21T03:53:48.786Z,100160.00
2022-11-21T03:56:17.188Z,100160.69
2022-11-21T03:58:45.961Z,100169.00
2022-11-21T04:01:15.079Z,100155.31
2022-11-21T04:03:44.987Z,100157.13
2022-11-21T04:06:14.820Z,100171.66
2022-11-21T04:08:42.735Z,100170.66
2022-11-21T04:11:11.056Z,100169.53
2022-11-21T04:13:39.331Z,100175.16
2022-11-21T04:16:07.786Z,100178.06
2022-11-21T04:18:35.849Z,100164.97
2022-11-21T04:21:08.115Z,100171.78
2022-11-21T04:23:36.329Z,100174.84
2022-11-21T04:26:04.389Z,100171.78
2022-11-21T04:28:32.543Z,100177.19
2022-11-21T04:31:10.005Z,100176.16
2022-11-21T04:33:39.138Z,100180.22
2022-11-21T04:36:09.103Z,100180.22
2022-11-21T04:38:37.428Z,100175.69
2022-11-21T04:41:05.786Z,100178.53
2022-11-21T04:43:33.717Z,100179.00
2022-11-21T04:46:01.581Z,100170.13
2022-11-21T04:48:29.479Z,100172.16
2022-11-21T04:50:57.306Z,100167.97
2022-11-21T04:53:26.591Z,100171.06
2022-11-21T04:55:54.626Z,100174.28
2022-11-21T04:58:22.541Z,100172.44
2022-11-21T05:00:50.545Z,100170.31
2022-11-21T05:03:18.454Z,100171.66
2022-11-21T05:05:46.429Z,100171.16
2022-11-21T05:08:14.406Z,100171.75
2022-11-21T05:11:02.009Z,100168.41
2022-11-21T05:13:29.983Z,100170.41
2022-11-21T05:15:58.863Z,100171.91
2022-11-21T05:18:26.862Z,100180.84
2022-11-21T05:20:54.948Z,100177.56
2022-11-21T05:23:22.893Z,100180.53
2022-11-21T05:25:52.153Z,100184.53
2022-11-21T05:28:20.088Z,100175.31
2022-11-21T05:30:48.036Z,100180.59
2022-11-21T05:33:16.101Z,100178.03
2022-11-21T05:35:44.182Z,100176.31
2022-11-21T05:38:12.589Z,100181.97
2022-11-21T05:40:40.652Z,100179.72
2022-11-21T05:43:29.714Z,100188.88
2022-11-21T05:45:57.726Z,100174.81
2022-11-21T05:48:25.669Z,100176.16
2022-11-21T05:50:53.691Z,100179.69
2022-11-21T05:53:21.810Z,100170.56
2022-11-21T05:55:49.811Z,100167.81
2022-11-21T05:58:19.078Z,100169.97
2022-11-21T06:00:47.230Z,100179.25
2022-11-21T06:03:30.726Z,100172.19
2022-11-21T06:06:03.025Z,100183.34
2022-11-21T06:08:32.844Z,100175.59
2022-11-21T06:11:00.771Z,100186.41
2022-11-21T06:13:30.380Z,100188.47
2022-11-21T06:16:01.574Z,100182.25
2022-11-21T06:18:32.009Z,100182.97
2022-11-21T06:21:03.082Z,100184.69
2022-11-21T06:23:31.071Z,100188.63
2022-11-21T06:25:59.369Z,100180.50
2022-11-21T06:28:27.484Z,100172.50
2022-11-21T06:30:56.715Z,100172.94
2022-11-21T06:33:24.587Z,100181.88
2022-11-21T06:35:52.483Z,100184.69
2022-11-21T06:38:20.430Z,100189.81
2022-11-21T06:40:48.287Z,100188.03
2022-11-21T06:43:16.187Z,100188.78
2022-11-21T06:45:44.090Z,100184.38
2022-11-21T06:48:13.372Z,100194.41
2022-11-21T06:50:41.446Z,100189.97
2022-11-21T06:53:09.364Z,100194.13
2022-11-21T06:55:37.317Z,100200.41
2022-11-21T06:58:05.302Z,100200.00
2022-11-21T07:00:33.197Z,100196.72
2022-11-21T07:03:03.531Z,100203.78
2022-11-21T07:05:32.964Z,100204.78
2022-11-21T07:08:01.092Z,100195.91
2022-11-21T07:10:29.515Z,100206.00
2022-11-21T07:13:16.460Z,100209.94
2022-11-21T07:15:44.900Z,100220.22
2022-11-21T07:18:13.530Z,100219.97
2022-11-21T07:20:42.828Z,100223.56
2022-11-21T07:23:11.078Z,100229.00
2022-11-21T07:25:39.615Z,100232.22
2022-11-21T07:28:08.752Z,100229.00
2022-11-21T07:30:37.490Z,100229.50
2022-11-21T07:33:07.228Z,100233.94
2022-11-21T07:35:35.642Z,100238.44
2022-11-21T07:38:05.771Z,100240.94
2022-11-21T07:40:34.777Z,100250.63
2022-11-21T07:43:07.940Z,100250.41
2022-11-21T07:45:39.029Z,100248.00
2022-11-21T07:48:08.231Z,100255.06
2022-11-21T07:50:36.169Z,100255.41
2022-11-21T07:53:07.177Z,100262.22
2022-11-21T07:55:40.396Z,100260.19
2022-11-21T07:58:11.216Z,100255.25
2022-11-21T08:00:40.786Z,100251.06
2022-11-21T08:03:08.673Z,100264.59
2022-11-21T08:05:37.697Z,100264.94
2022-11-21T08:08:07.869Z,100265.28
2022-11-21T08:10:38.593Z,100266.28
2022-11-21T08:13:06.836Z,100270.03
2022-11-21T08:15:34.757Z,100262.53
2022-11-21T08:18:08.632Z,100268.34
2022-11-21T08:20:36.659Z,100271.31
2022-11-21T08:23:04.662Z,100266.38
2022-11-21T08:25:34.230Z,100265.91
2022-11-21T08:28:02.758Z,100277.56
2022-11-21T08:30:30.766Z,100269.19
2022-11-21T08:32:58.814Z,100280.38
2022-11-21T08:35:26.762Z,100273.16
2022-11-21T08:37:57.261Z,100290.06
2022-11-21T08:40:25.667Z,100291.38
2022-11-21T08:42:59.271Z,100292.50
2022-11-21T08:45:27.220Z,100289.63
2022-11-21T08:47:56.147Z,100304.13
2022-11-21T08:50:25.113Z,100311.31
2022-11-21T08:52:53.206Z,100318.09
2022-11-21T08:55:23.122Z,100315.16
2022-11-21T08:57:51.018Z,100312.38
2022-11-21T09:00:20.683Z,100314.50
2022-11-21T09:02:48.577Z,100310.06
2022-11-21T09:05:16.700Z,100315.94
2022-11-21T09:07:44.680Z,100314.06
2022-11-21T09:10:12.820Z,100313.19
2022-11-21T09:12:40.780Z,100321.22
2022-11-21T09:15:29.373Z,100317.88
2022-11-21T09:18:04.414Z,100322.72
2022-11-21T09:20:32.984Z,100323.94
2022-11-21T09:23:05.243Z,100322.63
2022-11-21T09:25:34.245Z,100332.56
2022-11-21T09:28:03.676Z,100328.69
2022-11-21T09:30:31.838Z,100333.47
2022-11-21T09:33:02.722Z,100327.34
2022-11-21T09:35:31.419Z,100332.22
2022-11-21T09:37:59.578Z,100337.13
2022-11-21T09:40:29.979Z,100336.13
2022-11-21T09:43:14.770Z,100339.84
2022-11-21T09:45:47.492Z,100325.56
2022-11-21T09:48:20.319Z,100335.50
2022-11-21T09:50:53.939Z,100330.50
2022-11-21T09:53:26.078Z,100334.13
2022-11-21T09:55:59.079Z,100334.63
2022-11-21T09:58:32.451Z,100340.78
2022-11-21T10:01:00.606Z,100338.69
2022-11-21T10:03:32.716Z,100334.06
2022-11-21T10:06:04.941Z,100348.69
2022-11-21T10:08:42.911Z,100356.53
2022-11-21T10:11:21.109Z,100352.09
2022-11-21T10:14:03.954Z,100352.72
2022-11-21T10:16:42.582Z,100368.75
2022-11-21T10:19:41.351Z,100371.63
2022-11-21T10:22:35.458Z,100378.94
2022-11-21T10:25:12.704Z,100374.66
2022-11-21T10:27:48.816Z,100360.75
2022-11-21T10:30:18.453Z,100360.88
2022-11-21T10:32:51.764Z,100371.94
2022-11-21T10:35:25.004Z,100380.81
2022-11-21T10:37:54.464Z,100384.25
2022-11-21T10:40:33.365Z,100383.19
2022-11-21T10:43:26.402Z,100384.22
2022-11-21T10:45:54.013Z,100383.38
2022-11-21T10:48:21.982Z,100381.53
2022-11-21T10:51:06.877Z,100386.78
2022-11-21T10:53:52.446Z,100382.75
2022-11-21T10:56:22.954Z,100382.34
2022-11-21T10:58:52.971Z,100386.22
2022-11-21T11:01:23.071Z,100387.06
2022-11-21T11:04:26.834Z,100383.47
2022-11-21T11:06:57.416Z,100381.09
2022-11-21T11:09:29.228Z,100387.66
2022-11-21T11:12:24.015Z,100386.00
2022-11-21T11:14:53.733Z,100385.69
2022-11-21T11:17:30.700Z,100386.78
2022-11-21T11:20:03.510Z,100383.44
2022-11-21T11:22:32.773Z,100380.91
2022-11-21T11:25:01.273Z,100386.09
2022-11-21T11:27:30.431Z,100379.09
2022-11-21T11:29:58.302Z,100383.44
2022-11-21T11:32:26.683Z,100379.88
2022-11-21T11:35:01.123Z,100379.50
2022-11-21T11:37:40.447Z,100381.66
2022-11-21T11:40:20.176Z,100383.91
2022-11-21T11:43:20.704Z,100382.81
2022-11-21T11:46:24.797Z,100379.56
2022-11-21T11:49:19.237Z,100385.38
2022-11-21T11:51:48.242Z,100377.25
2022-11-21T11:54:21.878Z,100388.09
2022-11-21T11:56:50.664Z,100374.13
2022-11-21T11:59:23.729Z,100377.13
2022-11-21T12:01:57.040Z,100385.31
2022-11-21T12:04:26.999Z,100376.19
2022-11-21T12:09:55.809Z,100387.31
2022-11-21T12:12:31.786Z,100384.34
2022-11-21T12:15:30.215Z,100388.69
2022-11-21T12:18:11.451Z,100380.13
2022-11-21T12:20:49.737Z,100376.53
2022-11-21T12:23:18.835Z,100385.78
2022-11-21T12:25:59.763Z,100386.88
2022-11-21T12:28:36.432Z,100388.09
2022-11-21T12:31:14.045Z,100378.53
2022-11-21T12:33:56.473Z,100372.03
2022-11-21T12:36:33.954Z,100373.13
2022-11-21T12:39:37.508Z,100360.91
2022-11-21T12:42:31.824Z,100366.34
2022-11-21T12:45:11.778Z,100368.13
2022-11-21T12:48:19.045Z,100364.72
2022-11-21T12:51:11.814Z,100371.84
2022-11-21T12:54:06.334Z,100371.63
2022-11-21T12:56:44.405Z,100364.69
2022-11-21T12:59:16.157Z,100363.66
2022-11-21T13:01:51.640Z,100352.97
2022-11-21T13:04:24.910Z,100356.91
2022-11-21T13:06:55.011Z,100353.97
2022-11-21T13:09:27.468Z,100345.13
2022-11-21T13:12:01.765Z,100332.78
2022-11-21T13:14:39.224Z,100342.28
2022-11-21T13:17:28.161Z,100340.94
2022-11-21T13:20:00.397Z,100346.28
2022-11-21T13:22:56.530Z,100341.63
2022-11-21T13:25:39.274Z,100349.13
2022-11-21T13:28:33.613Z,100359.41
2022-11-21T13:31:04.889Z,100355.34
2022-11-21T13:33:51.286Z,100349.63
2022-11-21T13:36:42.910Z,100343.97
2022-11-21T13:39:38.812Z,100348.50
2022-11-21T13:42:29.545Z,100344.88
2022-11-21T13:44:58.285Z,100348.50
2022-11-21T13:48:00.402Z,100328.34
2022-11-21T13:50:48.601Z,100333.25
2022-11-21T13:53:45.801Z,100332.16
2022-11-21T13:56:27.067Z,100324.06
2022-11-21T13:59:08.018Z,100320.31
2022-11-21T14:01:56.474Z,100332.59
2022-11-21T14:04:58.293Z,100320.34
2022-11-21T14:07:31.020Z,100324.22
2022-11-21T14:10:01.696Z,100309.44
2022-11-21T14:12:37.133Z,100307.38
2022-11-21T14:15:23.886Z,100315.19
2022-11-21T14:17:54.515Z,100323.81
2022-11-21T14:20:26.087Z,100315.09
2022-11-21T14:23:04.323Z,100321.81
2022-11-21T14:25:37.812Z,100324.91
2022-11-21T14:28:09.658Z,100322.34
2022-11-21T14:30:39.352Z,100315.28
2022-11-21T14:33:28.878Z,100320.88
2022-11-21T14:36:01.459Z,100315.78
2022-11-21T14:38:31.555Z,100310.81
2022-11-21T14:41:29.639Z,100303.22
2022-11-21T14:44:16.216Z,100295.13
2022-11-21T14:46:45.425Z,100291.00
2022-11-21T14:49:29.319Z,100298.97
2022-11-21T14:52:13.777Z,100311.53
2022-11-21T14:55:15.004Z,100297.13
2022-11-21T14:57:38.118Z,100314.88
2022-11-21T15:00:07.629Z,100321.59
2022-11-21T15:02:36.047Z,100319.81
2022-11-21T15:05:06.664Z,100325.19
2022-11-21T15:07:42.438Z,100324.25
2022-11-21T15:10:30.256Z,100336.25
2022-11-21T15:13:02.271Z,100332.84
2022-11-21T15:15:34.439Z,100330.13
2022-11-21T15:20:54.682Z,100325.38
2022-11-21T15:23:32.486Z,100334.25
2022-11-21T15:26:01.822Z,100331.34
2022-11-21T15:28:30.675Z,100331.53
2022-11-21T15:31:18.727Z,100323.84
2022-11-21T15:37:03.741Z,100326.25
2022-11-21T15:39:35.834Z,100328.28
2022-11-21T15:42:28.747Z,100322.63
2022-11-21T15:44:59.497Z,100316.63
2022-11-21T15:47:27.347Z,100320.66
2022-11-21T15:49:55.394Z,100316.50
2022-11-21T15:52:23.591Z,100316.63
2022-11-21T15:54:52.959Z,100316.63
2022-11-21T15:57:13.109Z,100327.38
2022-11-21T15:57:22.102Z,100307.31
2022-11-21T15:59:50.814Z,100305.28
2022-11-21T16:02:19.034Z,100304.63
2022-11-21T16:04:46.949Z,100309.41
2022-11-21T16:07:14.862Z,100309.25
2022-11-21T16:09:44.832Z,100307.47
2022-11-21T16:12:14.218Z,100303.41
2022-11-21T16:14:42.154Z,100305.97
2022-11-21T16:17:10.131Z,100309.19
2022-11-21T16:19:38.083Z,100301.19
2022-11-21T16:22:05.976Z,100307.34
2022-11-21T16:24:33.977Z,100306.41
2022-11-21T16:27:02.464Z,100298.56
2022-11-21T16:29:31.893Z,100290.00
2022-11-21T16:31:59.925Z,100296.25
2022-11-21T16:34:28.439Z,100288.31
2022-11-21T16:36:56.481Z,100283.38
2022-11-21T16:39:24.292Z,100282.72
2022-11-21T16:41:52.194Z,100299.78
2022-11-21T16:44:20.048Z,100291.13
2022-11-21T16:46:51.650Z,100291.91
2022-11-21T16:49:20.232Z,100294.44
2022-11-21T16:51:48.818Z,100282.56
2022-11-21T16:54:16.712Z,100288.47
2022-11-21T16:56:44.731Z,100283.88
2022-11-21T16:59:12.618Z,100290.97
2022-11-21T17:01:40.634Z,100302.72
2022-11-21T17:04:15.641Z,100292.66
2022-11-21T17:06:47.051Z,100287.47
2022-11-21T17:09:15.336Z,100299.63
2022-11-21T17:11:43.288Z,100296.38
2022-11-21T17:14:12.828Z,100290.25
2022-11-21T17:16:41.655Z,100291.84
2022-11-21T17:19:13.302Z,100292.31
2022-11-21T17:21:41.443Z,100300.72
2022-11-21T17:24:09.431Z,100290.03
2022-11-21T17:26:38.533Z,100292.53
2022-11-21T17:29:06.407Z,100284.66
2022-11-21T17:31:34.499Z,100266.06
2022-11-21T17:34:02.875Z,100258.28
2022-11-21T17:36:34.478Z,100259.94
2022-11-21T17:39:02.795Z,100265.34
2022-11-21T17:41:30.757Z,100266.81
2022-11-21T17:43:59.682Z,100268.16
2022-11-21T17:46:28.762Z,100266.34
2022-11-21T17:48:59.138Z,100280.81
2022-11-21T17:51:29.858Z,100266.53
2022-11-21T17:53:59.865Z,100268.72
2022-11-21T17:56:30.229Z,100282.06
2022-11-21T17:58:58.227Z,100270.59
2022-11-21T18:01:26.833Z,100255.84
2022-11-21T18:03:57.285Z,100260.34
2022-11-21T18:06:26.157Z,100248.63
2022-11-21T18:08:54.179Z,100255.47
2022-11-21T18:11:23.726Z,100245.66
2022-11-21T18:13:51.951Z,100244.28
2022-11-21T18:16:22.201Z,100255.16
2022-11-21T18:18:51.513Z,100250.78
2022-11-21T18:21:21.578Z,100253.97
2022-11-21T18:23:50.266Z,100257.69
2022-11-21T18:26:21.157Z,100244.63
2022-11-21T18:29:13.087Z,100243.75
2022-11-21T18:31:42.837Z,100242.31
2022-11-21T18:34:12.043Z,100248.56
2022-11-21T18:36:39.996Z,100246.44
2022-11-21T18:39:14.123Z,100240.59
2022-11-21T18:41:42.835Z,100238.06
2022-11-21T18:44:20.156Z,100235.44
2022-11-21T18:46:49.762Z,100220.84
2022-11-21T18:49:18.173Z,100223.09
2022-11-21T18:51:46.543Z,100228.34
2022-11-21T18:54:14.452Z,100212.84
2022-11-21T18:56:42.385Z,100205.00
2022-11-21T18:59:10.302Z,100199.16
2022-11-21T19:01:40.433Z,100205.50
2022-11-21T19:04:09.458Z,100197.72
2022-11-21T19:06:37.464Z,100192.41
2022-11-21T19:09:05.646Z,100192.53
2022-11-21T19:11:33.523Z,100194.84
2022-11-21T19:14:01.541Z,100206.09
2022-11-21T19:16:33.891Z,100205.44
2022-11-21T19:21:54.506Z,100197.00
2022-11-21T19:24:22.441Z,100190.78
2022-11-21T19:26:51.123Z,100186.75
2022-11-21T19:29:19.522Z,100181.63
2022-11-21T19:31:47.569Z,100165.03
2022-11-21T19:34:17.570Z,100172.19
2022-11-21T19:36:45.990Z,100162.25
2022-11-21T19:39:23.389Z,100159.47
2022-11-21T19:41:51.465Z,100151.50
2022-11-21T19:44:19.792Z,100143.66
2022-11-21T19:46:47.992Z,100141.81
2022-11-21T19:49:19.301Z,100135.91
2022-11-21T19:51:47.399Z,100135.84
2022-11-21T19:54:16.306Z,100122.34
2022-11-21T19:56:44.320Z,100118.66
2022-11-21T19:59:13.784Z,100108.88
2022-11-21T20:01:41.976Z,100107.63
2022-11-21T20:04:11.762Z,100106.84
2022-11-21T20:06:45.841Z,100113.28
2022-11-21T20:09:15.801Z,100103.22
2022-11-21T20:11:45.401Z,100101.84
2022-11-21T20:14:21.084Z,100096.09
2022-11-21T20:16:50.232Z,100094.06
2022-11-21T20:19:20.520Z,100100.09
2022-11-21T20:21:49.804Z,100102.81
2022-11-21T20:24:18.206Z,100094.25
2022-11-21T20:26:46.581Z,100095.16
2022-11-21T20:29:15.601Z,100103.50
2022-11-21T20:31:44.318Z,100104.38
2022-11-21T20:34:14.080Z,100107.16
2022-11-21T20:36:42.767Z,100107.59
2022-11-21T20:39:15.160Z,100105.03
2022-11-21T20:41:43.406Z,100099.75
2022-11-21T20:47:03.331Z,100103.00
2022-11-21T20:49:31.840Z,100103.75
2022-11-21T20:54:49.094Z,100082.28
2022-11-21T20:57:16.968Z,100083.91
2022-11-21T20:59:44.900Z,100092.44
2022-11-21T21:02:14.029Z,100097.34
2022-11-21T21:04:42.467Z,100097.03
2022-11-21T21:07:10.842Z,100086.84
2022-11-21T21:09:38.834Z,100092.16
2022-11-21T21:12:08.425Z,100095.56
2022-11-21T21:14:36.435Z,100101.09
2022-11-21T21:17:04.369Z,100097.91
2022-11-21T21:19:32.605Z,100125.59
2022-11-21T21:22:00.629Z,100126.34
2022-11-21T21:24:28.809Z,100128.22
2022-11-21T21:26:56.703Z,100136.44
2022-11-21T21:29:25.956Z,100140.78
2022-11-21T21:31:54.473Z,100144.22
2022-11-21T21:34:23.240Z,100150.03
2022-11-21T21:36:51.712Z,100155.75
2022-11-21T21:39:19.837Z,100147.31
2022-11-21T21:41:48.133Z,100158.81
2022-11-21T21:44:16.911Z,100167.84
2022-11-21T21:46:46.499Z,100172.75
2022-11-21T21:49:14.438Z,100177.47
2022-11-21T21:51:42.331Z,100172.50
2022-11-21T21:54:17.458Z,100166.28
2022-11-21T21:56:46.755Z,100155.88
2022-11-21T21:59:15.356Z,100161.75
2022-11-21T22:01:43.885Z,100164.66
2022-11-21T22:04:13.629Z,100157.63
2022-11-21T22:06:41.718Z,100156.19
2022-11-21T22:09:09.663Z,100145.75
2022-11-21T22:11:39.215Z,100152.31
2022-11-21T22:14:08.962Z,100142.41
2022-11-21T22:16:36.968Z,100153.81
2022-11-21T22:19:04.796Z,100144.28
2022-11-21T22:21:35.973Z,100130.66
2022-11-21T22:26:53.527Z,100131.66
2022-11-21T22:29:21.375Z,100135.31
2022-11-21T22:31:49.306Z,100132.63
2022-11-21T22:34:17.198Z,100122.88
2022-11-21T22:36:46.854Z,100120.81
2022-11-21T22:39:15.318Z,100105.72
2022-11-21T22:41:43.227Z,100107.97
2022-11-21T22:44:11.400Z,100113.09
2022-11-21T22:46:39.413Z,100110.34
2022-11-21T22:49:07.341Z,100101.53
2022-11-21T22:51:35.301Z,100102.47
2022-11-21T22:54:04.584Z,100107.69
2022-11-21T22:56:32.439Z,100102.88
2022-11-21T22:59:00.354Z,100103.97
2022-11-21T23:01:28.309Z,100104.06
2022-11-21T23:03:56.599Z,100103.56
2022-11-21T23:06:26.109Z,100106.38
2022-11-21T23:08:55.342Z,100105.16
2022-11-21T23:11:26.229Z,100103.28
2022-11-21T23:13:55.724Z,100100.31
2022-11-21T23:16:24.281Z,100097.09
2022-11-21T23:18:53.765Z,100103.50
2022-11-21T23:21:22.052Z,100101.06
2022-11-21T23:23:50.064Z,100104.19
2022-11-21T23:26:18.372Z,100097.50
2022-11-21T23:28:47.639Z,100098.25
2022-11-21T23:31:15.512Z,100103.78
2022-11-21T23:33:43.537Z,100090.13
2022-11-21T23:36:11.412Z,100099.94
2022-11-21T23:38:39.313Z,100102.63
2022-11-21T23:41:07.236Z,100097.22
2022-11-21T23:43:35.255Z,100094.47
2022-11-21T23:46:04.571Z,100104.22
2022-11-21T23:48:32.448Z,100105.34
2022-11-21T23:51:00.321Z,100088.41
2022-11-21T23:53:28.171Z,100088.56
2022-11-21T23:55:56.043Z,100093.34
2022-11-21T23:58:23.875Z,100079.06
